createdAt,value
2018-12-09T00:00:27.535Z,9.40
2018-12-09T00:02:56.987Z,9.60
2018-12-09T00:05:26.566Z,10.00
2018-12-09T00:07:55.698Z,10.10
2018-12-09T00:10:24.733Z,10.30
2018-12-09T00:12:54.671Z,10.60
2018-12-09T00:15:23.884Z,10.90
2018-12-09T00:17:52.738Z,11.00
2018-12-09T00:20:22.387Z,11.00
2018-12-09T00:22:51.755Z,11.00
2018-12-09T00:25:21.231Z,11.10
2018-12-09T00:27:50.869Z,11.30
2018-12-09T00:30:20.730Z,11.40
2018-12-09T00:32:49.809Z,11.30
2018-12-09T00:35:19.084Z,11.40
2018-12-09T00:37:48.782Z,10.80
2018-12-09T00:40:18.308Z,10.30
2018-12-09T00:42:46.928Z,9.90
2018-12-09T00:45:16.257Z,10.10
2018-12-09T00:47:46.538Z,10.00
2018-12-09T00:50:15.492Z,10.10
2018-12-09T00:52:44.488Z,10.00
2018-12-09T00:55:14.787Z,10.10
2018-12-09T00:57:44.108Z,10.40
2018-12-09T01:00:13.859Z,10.30
2018-12-09T01:02:43.211Z,10.50
2018-12-09T01:05:11.914Z,10.60
2018-12-09T01:07:41.354Z,10.70
2018-12-09T01:10:11.434Z,10.70
2018-12-09T01:12:40.628Z,10.80
2018-12-09T01:15:09.879Z,11.00
2018-12-09T01:17:39.022Z,11.00
2018-12-09T01:20:08.516Z,11.00
2018-12-09T01:22:37.707Z,11.20
2018-12-09T01:25:06.920Z,11.20
2018-12-09T01:27:35.956Z,11.30
2018-12-09T01:30:06.401Z,11.20
2018-12-09T01:32:35.950Z,11.40
2018-12-09T01:35:06.722Z,11.30
2018-12-09T01:37:36.868Z,11.40
2018-12-09T01:40:06.984Z,11.40
2018-12-09T01:42:35.922Z,11.40
2018-12-09T01:45:05.553Z,11.40
2018-12-09T01:47:34.933Z,11.40
2018-12-09T01:50:03.421Z,11.50
2018-12-09T01:52:32.203Z,11.40
2018-12-09T01:55:01.477Z,11.30
2018-12-09T01:57:30.150Z,11.50
2018-12-09T01:59:59.165Z,11.40
2018-12-09T02:02:28.405Z,11.40
2018-12-09T02:04:57.539Z,11.50
2018-12-09T02:07:27.167Z,11.50
2018-12-09T02:09:56.599Z,11.40
2018-12-09T02:12:25.772Z,11.30
2018-12-09T02:14:54.212Z,11.30
2018-12-09T02:17:23.493Z,11.30
2018-12-09T02:19:53.164Z,11.20
2018-12-09T02:22:22.416Z,11.30
2018-12-09T02:24:52.483Z,11.30
2018-12-09T02:27:22.009Z,11.20
2018-12-09T02:29:50.689Z,11.10
2018-12-09T02:32:19.913Z,11.10
2018-12-09T02:34:53.563Z,11.10
2018-12-09T02:37:22.135Z,11.00
2018-12-09T02:39:50.925Z,10.90
2018-12-09T02:42:19.498Z,10.80
2018-12-09T02:44:47.899Z,10.70
2018-12-09T02:47:17.082Z,10.70
2018-12-09T02:49:46.223Z,10.60
2018-12-09T02:52:16.020Z,10.60
2018-12-09T02:54:45.520Z,10.50
2018-12-09T02:57:14.154Z,10.50
2018-12-09T02:59:44.537Z,10.50
2018-12-09T03:02:14.564Z,10.60
2018-12-09T03:04:43.975Z,10.50
2018-12-09T03:07:13.333Z,10.40
2018-12-09T03:09:43.198Z,10.40
2018-12-09T03:12:12.132Z,10.40
2018-12-09T03:14:41.381Z,10.30
2018-12-09T03:17:10.572Z,10.30
2018-12-09T03:19:40.668Z,10.20
2018-12-09T03:22:09.706Z,10.20
2018-12-09T03:24:38.817Z,10.20
2018-12-09T03:27:08.207Z,10.20
2018-12-09T03:29:37.285Z,10.20
2018-12-09T03:32:06.445Z,10.20
2018-12-09T03:34:35.453Z,10.20
2018-12-09T03:37:04.929Z,10.30
2018-12-09T03:39:33.870Z,10.20
2018-12-09T03:42:02.429Z,10.20
2018-12-09T03:44:32.265Z,10.20
2018-12-09T03:47:01.316Z,10.20
2018-12-09T03:49:30.436Z,10.10
2018-12-09T03:51:59.208Z,10.10
2018-12-09T03:54:29.041Z,10.20
2018-12-09T03:56:58.361Z,10.20
2018-12-09T03:59:27.252Z,10.10
2018-12-09T04:01:56.260Z,10.20
2018-12-09T04:04:24.926Z,10.20
2018-12-09T04:06:53.733Z,10.10
2018-12-09T04:09:23.190Z,10.00
2018-12-09T04:11:51.799Z,10.00
2018-12-09T04:14:20.930Z,10.10
2018-12-09T04:16:50.307Z,9.90
2018-12-09T04:19:19.703Z,9.50
2018-12-09T04:21:48.961Z,9.30
2018-12-09T04:24:18.305Z,9.00
2018-12-09T04:26:48.301Z,8.70
2018-12-09T04:29:17.320Z,8.40
2018-12-09T04:31:46.564Z,8.20
2018-12-09T04:34:15.045Z,8.10
2018-12-09T04:36:44.609Z,8.10
2018-12-09T04:39:13.575Z,8.20
2018-12-09T04:41:43.254Z,8.30
2018-12-09T04:44:12.462Z,8.10
2018-12-09T04:46:41.606Z,8.00
2018-12-09T04:49:10.538Z,8.00
2018-12-09T04:51:59.922Z,8.20
2018-12-09T04:54:29.113Z,8.20
2018-12-09T04:56:58.445Z,8.20
2018-12-09T04:59:29.838Z,8.20
2018-12-09T05:01:58.441Z,8.30
2018-12-09T05:04:28.008Z,8.40
2018-12-09T05:06:58.633Z,8.40
2018-12-09T05:09:27.706Z,8.40
2018-12-09T05:11:56.780Z,8.30
2018-12-09T05:14:25.305Z,8.20
2018-12-09T05:16:54.062Z,8.30
2018-12-09T05:19:23.260Z,8.40
2018-12-09T05:21:53.466Z,8.60
2018-12-09T05:24:23.479Z,8.60
2018-12-09T05:26:52.860Z,8.60
2018-12-09T05:29:22.264Z,8.80
2018-12-09T05:31:51.338Z,8.80
2018-12-09T05:34:20.120Z,8.80
2018-12-09T05:36:49.286Z,8.80
2018-12-09T05:39:18.413Z,8.80
2018-12-09T05:41:47.035Z,8.80
2018-12-09T05:44:16.015Z,8.70
2018-12-09T05:46:45.404Z,8.70
2018-12-09T05:49:14.008Z,8.80
2018-12-09T05:51:43.405Z,8.80
2018-12-09T05:54:12.124Z,8.80
2018-12-09T05:56:41.382Z,8.80
2018-12-09T05:59:10.903Z,8.80
2018-12-09T06:01:39.460Z,8.80
2018-12-09T06:04:08.980Z,8.80
2018-12-09T06:06:37.680Z,8.90
2018-12-09T06:09:08.261Z,9.00
2018-12-09T06:11:36.870Z,9.00
2018-12-09T06:14:06.288Z,9.00
2018-12-09T06:16:35.641Z,9.00
2018-12-09T06:19:05.596Z,9.00
2018-12-09T06:21:34.455Z,9.00
2018-12-09T06:24:03.107Z,9.00
2018-12-09T06:26:31.959Z,9.00
2018-12-09T06:29:01.833Z,8.90
2018-12-09T06:31:30.410Z,8.80
2018-12-09T06:33:59.766Z,8.80
2018-12-09T06:36:28.947Z,8.80
2018-12-09T06:38:58.583Z,8.90
2018-12-09T06:41:27.389Z,8.80
2018-12-09T06:43:56.704Z,8.80
2018-12-09T06:46:25.805Z,8.80
2018-12-09T06:48:54.815Z,8.70
2018-12-09T06:51:24.554Z,8.60
2018-12-09T06:53:53.868Z,8.60
2018-12-09T06:56:22.761Z,8.60
2018-12-09T06:58:51.932Z,8.60
2018-12-09T07:01:21.901Z,8.60
2018-12-09T07:03:51.241Z,8.60
2018-12-09T07:06:20.647Z,8.80
2018-12-09T07:08:49.970Z,8.80
2018-12-09T07:11:19.284Z,8.80
2018-12-09T07:13:48.076Z,8.70
2018-12-09T07:16:17.657Z,8.70
2018-12-09T07:18:46.762Z,8.60
2018-12-09T07:21:15.856Z,8.50
2018-12-09T07:23:45.853Z,8.50
2018-12-09T07:26:14.455Z,8.60
2018-12-09T07:28:44.010Z,8.70
2018-12-09T07:31:13.277Z,8.70
2018-12-09T07:33:42.610Z,8.80
2018-12-09T07:36:12.384Z,8.80
2018-12-09T07:38:41.064Z,8.80
2018-12-09T07:41:10.611Z,8.80
2018-12-09T07:43:39.355Z,8.70
2018-12-09T07:46:08.678Z,8.70
2018-12-09T07:48:38.487Z,8.70
2018-12-09T07:51:07.872Z,8.70
2018-12-09T07:53:36.420Z,8.70
2018-12-09T07:56:05.715Z,8.70
2018-12-09T07:58:34.884Z,8.70
2018-12-09T08:01:03.541Z,8.70
2018-12-09T08:03:32.487Z,8.80
2018-12-09T08:06:01.545Z,8.80
2018-12-09T08:08:31.419Z,8.90
2018-12-09T08:11:00.571Z,8.90
2018-12-09T08:13:29.629Z,8.90
2018-12-09T08:15:58.120Z,8.90
2018-12-09T08:18:26.569Z,8.90
2018-12-09T08:20:54.951Z,8.90
2018-12-09T08:23:23.407Z,8.90
2018-12-09T08:25:52.814Z,9.00
2018-12-09T08:28:21.829Z,9.00
2018-12-09T08:30:51.479Z,9.10
2018-12-09T08:33:19.921Z,9.10
2018-12-09T08:35:48.995Z,9.10
2018-12-09T08:38:17.365Z,9.10
2018-12-09T08:40:45.737Z,9.10
2018-12-09T08:43:14.141Z,9.10
2018-12-09T08:45:42.673Z,9.20
2018-12-09T08:48:11.045Z,9.30
2018-12-09T08:50:39.419Z,9.30
2018-12-09T08:53:07.901Z,9.30
2018-12-09T08:55:36.637Z,9.30
2018-12-09T08:58:05.004Z,9.30
2018-12-09T09:00:33.360Z,9.30
2018-12-09T09:03:01.823Z,9.30
2018-12-09T09:05:30.308Z,9.30
2018-12-09T09:07:58.652Z,9.30
2018-12-09T09:10:27.029Z,9.30
2018-12-09T09:12:55.485Z,9.30
2018-12-09T09:15:24.157Z,9.30
2018-12-09T09:17:52.517Z,9.30
2018-12-09T09:20:20.914Z,9.40
2018-12-09T09:22:49.440Z,9.40
2018-12-09T09:25:17.919Z,9.40
2018-12-09T09:27:46.238Z,9.40
2018-12-09T09:30:14.677Z,9.50
2018-12-09T09:32:43.066Z,9.50
2018-12-09T09:35:11.519Z,9.50
2018-12-09T09:37:39.894Z,9.50
2018-12-09T09:40:08.943Z,9.50
2018-12-09T09:42:37.366Z,9.50
2018-12-09T09:45:06.817Z,9.40
2018-12-09T09:47:35.263Z,9.50
2018-12-09T09:50:04.068Z,9.40
2018-12-09T09:52:32.452Z,9.50
2018-12-09T09:55:01.170Z,9.40
2018-12-09T09:57:29.669Z,9.40
2018-12-09T09:59:58.051Z,9.40
2018-12-09T10:02:26.444Z,9.40
2018-12-09T10:04:54.851Z,9.50
2018-12-09T10:07:23.267Z,9.50
2018-12-09T10:09:52.660Z,9.50
2018-12-09T10:12:21.885Z,9.60
2018-12-09T10:14:50.916Z,9.60
2018-12-09T10:17:20.361Z,9.60
2018-12-09T10:19:49.597Z,9.60
2018-12-09T10:22:24.623Z,9.60
2018-12-09T10:24:52.987Z,9.70
2018-12-09T10:27:21.351Z,9.70
2018-12-09T10:29:49.713Z,9.80
2018-12-09T10:32:18.072Z,9.70
2018-12-09T10:34:46.404Z,9.80
2018-12-09T10:37:14.771Z,9.80
2018-12-09T10:39:45.006Z,9.80
2018-12-09T10:42:13.493Z,9.70
2018-12-09T10:44:41.854Z,9.80
2018-12-09T10:47:10.429Z,9.80
2018-12-09T10:49:38.760Z,9.80
2018-12-09T10:52:07.183Z,9.80
2018-12-09T10:54:35.502Z,9.80
2018-12-09T10:57:03.976Z,9.80
2018-12-09T10:59:32.339Z,9.80
2018-12-09T11:02:06.030Z,9.90
2018-12-09T11:04:34.365Z,9.90
2018-12-09T11:07:02.739Z,9.90
2018-12-09T11:09:31.206Z,9.90
2018-12-09T11:11:59.549Z,9.90
2018-12-09T11:14:27.955Z,9.90
2018-12-09T11:16:56.334Z,10.00
2018-12-09T11:19:24.686Z,10.00
2018-12-09T11:21:53.042Z,9.90
2018-12-09T11:24:21.424Z,9.90
2018-12-09T11:26:49.816Z,10.00
2018-12-09T11:29:18.185Z,10.00
2018-12-09T11:31:46.569Z,10.10
2018-12-09T11:34:14.952Z,10.20
2018-12-09T11:36:43.357Z,10.20
2018-12-09T11:39:11.754Z,10.20
2018-12-09T11:41:41.101Z,10.20
2018-12-09T11:44:09.492Z,10.10
2018-12-09T11:46:37.842Z,10.10
2018-12-09T11:49:06.225Z,10.10
2018-12-09T11:51:36.603Z,10.10
2018-12-09T11:54:05.154Z,10.10
2018-12-09T11:56:33.557Z,10.10
2018-12-09T11:59:02.104Z,10.20
2018-12-09T12:01:31.657Z,10.20
2018-12-09T12:04:00.134Z,10.20
2018-12-09T12:06:28.603Z,10.20
2018-12-09T12:08:57.007Z,10.20
2018-12-09T12:11:25.428Z,10.20
2018-12-09T12:13:53.976Z,10.10
2018-12-09T12:16:22.412Z,10.10
2018-12-09T12:18:50.872Z,10.10
2018-12-09T12:21:19.250Z,10.10
2018-12-09T12:23:47.768Z,10.10
2018-12-09T12:26:16.546Z,10.10
2018-12-09T12:28:45.133Z,10.10
2018-12-09T12:31:13.712Z,10.10
2018-12-09T12:33:42.106Z,10.10
2018-12-09T12:36:10.539Z,10.10
2018-12-09T12:38:38.905Z,10.10
2018-12-09T12:41:07.308Z,10.10
2018-12-09T12:43:35.799Z,10.20
2018-12-09T12:46:04.599Z,10.10
2018-12-09T12:48:33.200Z,10.10
2018-12-09T12:51:01.730Z,10.10
2018-12-09T12:53:30.124Z,10.10
2018-12-09T12:55:58.530Z,10.10
2018-12-09T12:58:27.012Z,10.10
2018-12-09T13:00:55.528Z,10.10
2018-12-09T13:03:23.998Z,10.10
2018-12-09T13:05:52.656Z,10.10
2018-12-09T13:08:21.342Z,10.10
2018-12-09T13:10:49.781Z,10.10
2018-12-09T13:13:18.269Z,10.10
2018-12-09T13:15:46.714Z,10.10
2018-12-09T13:18:15.300Z,10.10
2018-12-09T13:20:43.819Z,10.10
2018-12-09T13:23:12.352Z,10.10
2018-12-09T13:25:40.954Z,10.10
2018-12-09T13:28:09.440Z,10.10
2018-12-09T13:30:37.928Z,10.10
2018-12-09T13:33:06.313Z,10.10
2018-12-09T13:35:34.869Z,10.10
2018-12-09T13:38:03.223Z,10.10
2018-12-09T13:40:31.600Z,10.10
2018-12-09T13:43:00.054Z,10.10
2018-12-09T13:45:28.407Z,10.10
2018-12-09T13:47:57.074Z,10.10
2018-12-09T13:50:25.758Z,10.10
2018-12-09T13:52:54.102Z,10.10
2018-12-09T13:55:22.451Z,10.10
2018-12-09T13:57:50.797Z,10.10
2018-12-09T14:00:19.535Z,10.10
2018-12-09T14:02:48.055Z,10.00
2018-12-09T14:05:16.514Z,10.10
2018-12-09T14:07:45.057Z,10.00
2018-12-09T14:10:14.687Z,10.00
2018-12-09T14:12:43.105Z,10.00
2018-12-09T14:15:11.836Z,9.80
2018-12-09T14:17:40.362Z,9.50
2018-12-09T14:20:09.720Z,9.30
2018-12-09T14:22:38.320Z,9.20
2018-12-09T14:25:07.717Z,9.30
2018-12-09T14:27:36.573Z,9.30
2018-12-09T14:30:07.047Z,9.20
2018-12-09T14:32:35.621Z,9.20
2018-12-09T14:35:05.657Z,9.20
2018-12-09T14:37:34.110Z,9.20
2018-12-09T14:40:02.502Z,9.20
2018-12-09T14:42:30.897Z,9.20
2018-12-09T14:44:59.257Z,9.20
2018-12-09T14:47:27.741Z,9.30
2018-12-09T14:49:56.083Z,9.40
2018-12-09T14:52:24.458Z,9.40
2018-12-09T14:54:53.124Z,9.40
2018-12-09T14:57:21.478Z,9.50
2018-12-09T14:59:49.901Z,9.40
2018-12-09T15:02:18.435Z,9.50
2018-12-09T15:04:46.776Z,9.50
2018-12-09T15:07:15.281Z,9.40
2018-12-09T15:09:44.276Z,9.40
2018-12-09T15:12:13.156Z,9.40
2018-12-09T15:14:41.594Z,9.40
2018-12-09T15:17:09.987Z,9.40
2018-12-09T15:19:38.370Z,9.40
2018-12-09T15:22:06.989Z,9.40
2018-12-09T15:24:41.335Z,9.50
2018-12-09T15:27:05.801Z,9.50
2018-12-09T15:29:34.200Z,9.50
2018-12-09T15:32:02.682Z,9.50
2018-12-09T15:34:31.092Z,9.60
2018-12-09T15:36:59.453Z,9.60
2018-12-09T15:39:27.833Z,9.60
2018-12-09T15:41:56.244Z,9.60
2018-12-09T15:44:25.286Z,9.60
2018-12-09T15:46:53.695Z,9.60
2018-12-09T15:49:22.176Z,9.60
2018-12-09T15:51:50.647Z,9.60
2018-12-09T15:54:19.409Z,9.60
2018-12-09T15:56:47.925Z,9.60
2018-12-09T15:59:16.313Z,9.50
2018-12-09T16:01:44.703Z,9.50
2018-12-09T16:04:13.128Z,9.30
2018-12-09T16:06:41.502Z,9.20
2018-12-09T16:09:09.968Z,9.10
2018-12-09T16:11:38.343Z,9.10
2018-12-09T16:14:06.756Z,9.10
2018-12-09T16:16:35.092Z,9.10
2018-12-09T16:19:03.807Z,9.20
2018-12-09T16:21:32.249Z,9.20
2018-12-09T16:24:00.639Z,9.30
2018-12-09T16:26:28.984Z,9.30
2018-12-09T16:28:57.324Z,9.30
2018-12-09T16:31:25.700Z,9.30
2018-12-09T16:33:54.044Z,9.30
2018-12-09T16:36:22.605Z,9.30
2018-12-09T16:38:50.936Z,9.30
2018-12-09T16:41:19.302Z,9.30
2018-12-09T16:43:47.658Z,9.30
2018-12-09T16:46:16.016Z,9.30
2018-12-09T16:48:44.344Z,9.30
2018-12-09T16:51:12.748Z,9.30
2018-12-09T16:53:41.092Z,9.30
2018-12-09T16:56:09.477Z,9.30
2018-12-09T16:58:37.796Z,9.30
2018-12-09T17:01:06.170Z,9.30
2018-12-09T17:03:34.648Z,9.30
2018-12-09T17:06:03.005Z,9.10
2018-12-09T17:08:31.357Z,9.00
2018-12-09T17:10:59.838Z,9.00
2018-12-09T17:13:28.241Z,8.90
2018-12-09T17:15:56.624Z,8.90
2018-12-09T17:18:24.988Z,8.90
2018-12-09T17:20:53.367Z,8.90
2018-12-09T17:23:21.722Z,8.90
2018-12-09T17:25:50.160Z,9.00
2018-12-09T17:28:18.516Z,8.90
2018-12-09T17:30:47.538Z,8.90
2018-12-09T17:33:15.917Z,8.90
2018-12-09T17:35:44.297Z,8.90
2018-12-09T17:38:12.648Z,8.90
2018-12-09T17:40:41.988Z,8.90
2018-12-09T17:43:11.547Z,8.90
2018-12-09T17:45:40.383Z,8.90
2018-12-09T17:48:08.847Z,8.90
2018-12-09T17:50:37.902Z,8.80
2018-12-09T17:55:48.590Z,8.80
2018-12-09T17:58:17.300Z,8.80
2018-12-09T18:00:45.717Z,8.80
2018-12-09T18:03:14.251Z,8.80
2018-12-09T18:05:42.610Z,8.70
2018-12-09T18:08:11.021Z,8.70
2018-12-09T18:10:39.367Z,8.70
2018-12-09T18:13:07.822Z,8.80
2018-12-09T18:15:36.179Z,8.80
2018-12-09T18:18:04.644Z,8.80
2018-12-09T18:20:33.369Z,8.70
2018-12-09T18:23:01.756Z,8.70
2018-12-09T18:25:30.235Z,8.60
2018-12-09T18:27:58.644Z,8.60
2018-12-09T18:30:27.230Z,8.70
2018-12-09T18:32:56.145Z,8.60
2018-12-09T18:35:24.703Z,8.60
2018-12-09T18:37:53.172Z,8.60
2018-12-09T18:40:21.559Z,8.60
2018-12-09T18:42:50.440Z,8.70
2018-12-09T18:45:19.075Z,8.80
2018-12-09T18:47:47.468Z,8.80
2018-12-09T18:50:15.999Z,8.80
2018-12-09T18:52:44.417Z,8.80
2018-12-09T18:55:14.297Z,8.90
2018-12-09T18:57:42.761Z,8.90
2018-12-09T19:00:12.491Z,8.90
2018-12-09T19:02:41.977Z,8.90
2018-12-09T19:05:12.159Z,8.90
2018-12-09T19:07:41.606Z,8.90
2018-12-09T19:10:11.747Z,8.90
2018-12-09T19:12:41.472Z,8.90
2018-12-09T19:15:10.915Z,8.90
2018-12-09T19:17:40.690Z,8.90
2018-12-09T19:20:10.288Z,8.90
2018-12-09T19:22:39.965Z,8.90
2018-12-09T19:25:10.593Z,8.90
2018-12-09T19:27:41.026Z,8.90
2018-12-09T19:30:11.619Z,8.90
2018-12-09T19:32:41.483Z,9.00
2018-12-09T19:35:10.446Z,9.00
2018-12-09T19:37:40.183Z,9.00
2018-12-09T19:40:10.026Z,9.00
2018-12-09T19:42:39.515Z,9.00
2018-12-09T19:45:09.033Z,8.90
2018-12-09T19:47:38.720Z,8.80
2018-12-09T19:50:09.360Z,8.70
2018-12-09T19:52:38.770Z,8.70
2018-12-09T19:55:08.985Z,8.70
2018-12-09T19:57:38.715Z,8.70
2018-12-09T20:00:08.882Z,8.70
2018-12-09T20:02:38.303Z,8.70
2018-12-09T20:05:09.621Z,8.70
2018-12-09T20:07:40.073Z,8.70
2018-12-09T20:10:11.013Z,8.60
2018-12-09T20:12:40.716Z,8.60
2018-12-09T20:15:10.534Z,8.60
2018-12-09T20:17:40.702Z,8.50
2018-12-09T20:20:10.794Z,8.50
2018-12-09T20:22:39.935Z,8.50
2018-12-09T20:25:09.096Z,8.40
2018-12-09T20:27:38.956Z,8.40
2018-12-09T20:30:09.476Z,8.40
2018-12-09T20:32:38.584Z,8.40
2018-12-09T20:35:07.888Z,8.40
2018-12-09T20:37:37.455Z,8.40
2018-12-09T20:40:06.941Z,8.40
2018-12-09T20:42:36.052Z,8.40
2018-12-09T20:45:06.255Z,8.40
2018-12-09T20:47:35.353Z,8.40
2018-12-09T20:50:05.965Z,8.40
2018-12-09T20:52:35.145Z,8.40
2018-12-09T20:55:04.585Z,8.40
2018-12-09T20:57:35.051Z,8.50
2018-12-09T21:00:05.201Z,8.50
2018-12-09T21:02:34.341Z,8.50
2018-12-09T21:05:03.938Z,8.50
2018-12-09T21:07:33.406Z,8.40
2018-12-09T21:10:03.214Z,8.40
2018-12-09T21:12:32.695Z,8.40
2018-12-09T21:15:02.205Z,8.30
2018-12-09T21:17:31.498Z,8.30
2018-12-09T21:20:00.702Z,8.30
2018-12-09T21:22:30.027Z,8.30
2018-12-09T21:24:59.480Z,8.30
2018-12-09T21:27:28.414Z,8.30
2018-12-09T21:29:57.986Z,8.30
2018-12-09T21:32:27.398Z,8.20
2018-12-09T21:34:56.624Z,8.20
2018-12-09T21:37:25.785Z,8.20
2018-12-09T21:39:55.193Z,8.20
2018-12-09T21:42:24.349Z,8.20
2018-12-09T21:44:53.032Z,8.20
2018-12-09T21:47:21.691Z,8.20
2018-12-09T21:49:50.351Z,8.20
2018-12-09T21:52:19.704Z,8.20
2018-12-09T21:54:49.732Z,8.20
2018-12-09T21:57:19.004Z,8.20
2018-12-09T21:59:47.982Z,8.30
2018-12-09T22:02:17.157Z,8.20
2018-12-09T22:04:46.312Z,8.30
2018-12-09T22:07:15.655Z,8.30
2018-12-09T22:09:44.496Z,8.30
2018-12-09T22:12:13.833Z,8.40
2018-12-09T22:14:42.448Z,8.40
2018-12-09T22:17:11.226Z,8.30
2018-12-09T22:19:40.307Z,8.10
2018-12-09T22:22:09.698Z,8.10
2018-12-09T22:24:39.274Z,7.90
2018-12-09T22:27:08.518Z,7.90
2018-12-09T22:29:37.908Z,7.80
2018-12-09T22:32:07.010Z,7.70
2018-12-09T22:34:37.172Z,7.70
2018-12-09T22:37:06.545Z,7.70
2018-12-09T22:39:35.894Z,7.70
2018-12-09T22:42:04.981Z,7.70
2018-12-09T22:44:34.546Z,7.60
2018-12-09T22:47:03.243Z,7.60
2018-12-09T22:49:32.330Z,7.60
2018-12-09T22:52:02.252Z,7.60
2018-12-09T22:54:32.257Z,7.60
2018-12-09T22:57:00.905Z,7.70
2018-12-09T22:59:30.534Z,7.80
2018-12-09T23:02:05.498Z,7.70
2018-12-09T23:04:34.357Z,7.60
2018-12-09T23:07:09.092Z,7.60
2018-12-09T23:09:38.569Z,7.60
2018-12-09T23:12:07.991Z,7.50
2018-12-09T23:14:36.737Z,7.50
2018-12-09T23:17:05.888Z,7.50
2018-12-09T23:19:35.712Z,7.50
2018-12-09T23:22:06.397Z,7.50
2018-12-09T23:24:36.679Z,7.50
2018-12-09T23:27:07.306Z,7.50
2018-12-09T23:29:35.953Z,7.50
2018-12-09T23:32:05.057Z,7.50
2018-12-09T23:34:33.792Z,7.40
2018-12-09T23:37:02.821Z,7.40
2018-12-09T23:39:32.117Z,7.30
2018-12-09T23:42:02.597Z,7.20
2018-12-09T23:44:32.042Z,7.20
2018-12-09T23:47:01.456Z,7.20
2018-12-09T23:49:31.766Z,7.20
2018-12-09T23:52:01.095Z,7.00
2018-12-09T23:54:30.722Z,7.00
2018-12-09T23:56:59.625Z,7.00
2018-12-09T23:59:29.147Z,7.00
